sensor_id;sensor_type;location;lat;lon;timestamp;temperature;humidity
57108;DHT22;42987;52.916;6.542;2023-07-31T00:00:27;15.70;99.90
57108;DHT22;42987;52.916;6.542;2023-07-31T00:02:53;15.70;99.90
57108;DHT22;42987;52.916;6.542;2023-07-31T00:05:19;15.70;99.90
57108;DHT22;42987;52.916;6.542;2023-07-31T00:07:45;15.70;99.90
57108;DHT22;42987;52.916;6.542;2023-07-31T00:10:11;15.70;99.90
57108;DHT22;42987;52.916;6.542;2023-07-31T00:12:38;15.70;99.90
57108;DHT22;42987;52.916;6.542;2023-07-31T00:15:05;15.70;99.90
57108;DHT22;42987;52.916;6.542;2023-07-31T00:17:31;15.70;99.90
57108;DHT22;42987;52.916;6.542;2023-07-31T00:19:57;15.70;99.90
57108;DHT22;42987;52.916;6.542;2023-07-31T00:22:22;15.70;99.90
57108;DHT22;42987;52.916;6.542;2023-07-31T00:24:48;15.70;99.90
57108;DHT22;42987;52.916;6.542;2023-07-31T00:27:14;15.60;99.90
57108;DHT22;42987;52.916;6.542;2023-07-31T00:29:40;15.60;99.90
57108;DHT22;42987;52.916;6.542;2023-07-31T00:32:06;15.60;99.90
57108;DHT22;42987;52.916;6.542;2023-07-31T00:34:35;15.60;99.90
57108;DHT22;42987;52.916;6.542;2023-07-31T00:37:01;15.60;99.90
57108;DHT22;42987;52.916;6.542;2023-07-31T00:39:26;15.50;99.90
57108;DHT22;42987;52.916;6.542;2023-07-31T00:41:52;15.60;99.90
57108;DHT22;42987;52.916;6.542;2023-07-31T00:44:18;15.60;99.90
57108;DHT22;42987;52.916;6.542;2023-07-31T00:46:44;15.50;99.90
57108;DHT22;42987;52.916;6.542;2023-07-31T00:49:11;15.50;99.90
57108;DHT22;42987;52.916;6.542;2023-07-31T00:51:40;15.60;99.90
57108;DHT22;42987;52.916;6.542;2023-07-31T00:54:06;15.50;99.90
57108;DHT22;42987;52.916;6.542;2023-07-31T00:56:32;15.50;99.90
57108;DHT22;42987;52.916;6.542;2023-07-31T00:58:58;15.50;99.90
57108;DHT22;42987;52.916;6.542;2023-07-31T01:01:24;15.50;99.90
57108;DHT22;42987;52.916;6.542;2023-07-31T01:03:51;15.50;99.90
57108;DHT22;42987;52.916;6.542;2023-07-31T01:09:43;15.40;99.90
57108;DHT22;42987;52.916;6.542;2023-07-31T01:12:14;15.40;99.90
57108;DHT22;42987;52.916;6.542;2023-07-31T01:14:40;15.40;99.90
57108;DHT22;42987;52.916;6.542;2023-07-31T01:17:05;15.30;99.90
57108;DHT22;42987;52.916;6.542;2023-07-31T01:19:31;15.30;99.90
57108;DHT22;42987;52.916;6.542;2023-07-31T01:27:47;15.40;99.90
57108;DHT22;42987;52.916;6.542;2023-07-31T01:30:17;15.30;99.90
57108;DHT22;42987;52.916;6.542;2023-07-31T01:32:45;15.30;99.90
57108;DHT22;42987;52.916;6.542;2023-07-31T01:35:13;15.30;99.90
57108;DHT22;42987;52.916;6.542;2023-07-31T01:37:39;15.30;99.90
57108;DHT22;42987;52.916;6.542;2023-07-31T01:40:05;15.30;99.90
57108;DHT22;42987;52.916;6.542;2023-07-31T01:42:31;15.30;99.90
57108;DHT22;42987;52.916;6.542;2023-07-31T01:44:57;15.30;99.90
57108;DHT22;42987;52.916;6.542;2023-07-31T01:47:23;15.40;99.90
57108;DHT22;42987;52.916;6.542;2023-07-31T01:49:49;15.40;99.90
57108;DHT22;42987;52.916;6.542;2023-07-31T01:52:15;15.30;99.90
57108;DHT22;42987;52.916;6.542;2023-07-31T01:54:41;15.40;99.90
57108;DHT22;42987;52.916;6.542;2023-07-31T01:57:06;15.40;99.90
57108;DHT22;42987;52.916;6.542;2023-07-31T01:59:35;15.40;99.90
57108;DHT22;42987;52.916;6.542;2023-07-31T02:02:01;15.40;99.90
57108;DHT22;42987;52.916;6.542;2023-07-31T02:04:26;15.40;99.90
57108;DHT22;42987;52.916;6.542;2023-07-31T02:06:52;15.40;99.90
57108;DHT22;42987;52.916;6.542;2023-07-31T02:09:18;15.40;99.90
57108;DHT22;42987;52.916;6.542;2023-07-31T02:11:44;15.40;99.90
57108;DHT22;42987;52.916;6.542;2023-07-31T02:14:13;15.50;99.90
57108;DHT22;42987;52.916;6.542;2023-07-31T02:16:39;15.50;99.90
57108;DHT22;42987;52.916;6.542;2023-07-31T02:19:04;15.40;99.90
57108;DHT22;42987;52.916;6.542;2023-07-31T02:21:30;15.50;99.90
57108;DHT22;42987;52.916;6.542;2023-07-31T02:23:56;15.50;99.90
57108;DHT22;42987;52.916;6.542;2023-07-31T02:26:21;15.50;99.90
57108;DHT22;42987;52.916;6.542;2023-07-31T02:28:47;15.50;99.90
57108;DHT22;42987;52.916;6.542;2023-07-31T02:31:13;15.50;99.90
57108;DHT22;42987;52.916;6.542;2023-07-31T02:33:39;15.50;99.90
57108;DHT22;42987;52.916;6.542;2023-07-31T02:36:04;15.50;99.90
57108;DHT22;42987;52.916;6.542;2023-07-31T02:38:30;15.50;99.90
57108;DHT22;42987;52.916;6.542;2023-07-31T02:40:56;15.50;99.90
57108;DHT22;42987;52.916;6.542;2023-07-31T02:43:25;15.50;99.90
57108;DHT22;42987;52.916;6.542;2023-07-31T02:45:53;15.60;99.90
57108;DHT22;42987;52.916;6.542;2023-07-31T02:48:19;15.60;99.90
57108;DHT22;42987;52.916;6.542;2023-07-31T02:50:47;15.60;99.90
57108;DHT22;42987;52.916;6.542;2023-07-31T02:53:13;15.60;99.90
57108;DHT22;42987;52.916;6.542;2023-07-31T02:55:38;15.60;99.90
57108;DHT22;42987;52.916;6.542;2023-07-31T02:58:04;15.60;99.90
57108;DHT22;42987;52.916;6.542;2023-07-31T03:00:30;15.60;99.90
57108;DHT22;42987;52.916;6.542;2023-07-31T03:02:56;15.60;99.90
57108;DHT22;42987;52.916;6.542;2023-07-31T03:05:21;15.70;99.90
57108;DHT22;42987;52.916;6.542;2023-07-31T03:07:47;15.60;99.90
57108;DHT22;42987;52.916;6.542;2023-07-31T03:10:13;15.70;99.90
57108;DHT22;42987;52.916;6.542;2023-07-31T03:12:39;15.70;99.90
57108;DHT22;42987;52.916;6.542;2023-07-31T03:15:06;15.70;99.90
57108;DHT22;42987;52.916;6.542;2023-07-31T03:17:38;15.70;99.90
57108;DHT22;42987;52.916;6.542;2023-07-31T03:20:04;15.70;99.90
57108;DHT22;42987;52.916;6.542;2023-07-31T03:22:30;15.70;99.90
57108;DHT22;42987;52.916;6.542;2023-07-31T03:24:56;15.70;99.90
57108;DHT22;42987;52.916;6.542;2023-07-31T03:27:21;15.80;99.90
57108;DHT22;42987;52.916;6.542;2023-07-31T03:29:47;15.80;99.90
57108;DHT22;42987;52.916;6.542;2023-07-31T03:32:15;15.80;99.90
57108;DHT22;42987;52.916;6.542;2023-07-31T03:34:41;15.80;99.90
57108;DHT22;42987;52.916;6.542;2023-07-31T03:37:06;15.80;99.90
57108;DHT22;42987;52.916;6.542;2023-07-31T03:39:35;15.80;99.90
57108;DHT22;42987;52.916;6.542;2023-07-31T03:42:00;15.90;99.90
57108;DHT22;42987;52.916;6.542;2023-07-31T03:44:26;15.90;99.90
57108;DHT22;42987;52.916;6.542;2023-07-31T03:46:52;15.90;99.90
57108;DHT22;42987;52.916;6.542;2023-07-31T03:49:18;15.90;99.90
57108;DHT22;42987;52.916;6.542;2023-07-31T03:51:43;15.90;99.90
57108;DHT22;42987;52.916;6.542;2023-07-31T03:54:10;15.90;99.90
57108;DHT22;42987;52.916;6.542;2023-07-31T03:56:35;15.90;99.90
57108;DHT22;42987;52.916;6.542;2023-07-31T03:59:01;15.90;99.90
57108;DHT22;42987;52.916;6.542;2023-07-31T04:01:27;15.90;99.90
57108;DHT22;42987;52.916;6.542;2023-07-31T04:03:53;16.00;99.90
57108;DHT22;42987;52.916;6.542;2023-07-31T04:06:18;16.00;99.90
57108;DHT22;42987;52.916;6.542;2023-07-31T04:08:44;16.00;99.90
57108;DHT22;42987;52.916;6.542;2023-07-31T04:11:13;16.00;99.90
57108;DHT22;42987;52.916;6.542;2023-07-31T04:13:39;16.00;99.90
57108;DHT22;42987;52.916;6.542;2023-07-31T04:16:05;16.00;99.90
57108;DHT22;42987;52.916;6.542;2023-07-31T04:18:30;16.00;99.90
57108;DHT22;42987;52.916;6.542;2023-07-31T04:20:58;16.00;99.90
57108;DHT22;42987;52.916;6.542;2023-07-31T04:23:27;16.00;99.90
57108;DHT22;42987;52.916;6.542;2023-07-31T04:25:52;16.00;99.90
57108;DHT22;42987;52.916;6.542;2023-07-31T04:28:18;15.90;99.90
57108;DHT22;42987;52.916;6.542;2023-07-31T04:30:44;15.90;99.90
57108;DHT22;42987;52.916;6.542;2023-07-31T04:33:10;16.00;99.90
57108;DHT22;42987;52.916;6.542;2023-07-31T04:35:36;16.00;99.90
57108;DHT22;42987;52.916;6.542;2023-07-31T04:38:01;16.00;99.90
57108;DHT22;42987;52.916;6.542;2023-07-31T04:40:27;16.00;99.90
57108;DHT22;42987;52.916;6.542;2023-07-31T04:42:53;16.00;99.90
57108;DHT22;42987;52.916;6.542;2023-07-31T04:45:19;16.00;99.90
57108;DHT22;42987;52.916;6.542;2023-07-31T04:47:44;16.00;99.90
57108;DHT22;42987;52.916;6.542;2023-07-31T04:50:10;16.00;99.90
57108;DHT22;42987;52.916;6.542;2023-07-31T04:52:36;16.00;99.90
57108;DHT22;42987;52.916;6.542;2023-07-31T04:55:02;16.00;99.90
57108;DHT22;42987;52.916;6.542;2023-07-31T04:57:31;16.00;99.90
57108;DHT22;42987;52.916;6.542;2023-07-31T04:59:57;16.10;99.90
57108;DHT22;42987;52.916;6.542;2023-07-31T05:02:23;16.10;99.90
57108;DHT22;42987;52.916;6.542;2023-07-31T05:04:50;16.10;99.90
57108;DHT22;42987;52.916;6.542;2023-07-31T05:07:15;16.20;99.90
57108;DHT22;42987;52.916;6.542;2023-07-31T05:09:42;16.20;99.90
57108;DHT22;42987;52.916;6.542;2023-07-31T05:12:08;16.20;99.90
57108;DHT22;42987;52.916;6.542;2023-07-31T05:14:34;16.20;99.90
57108;DHT22;42987;52.916;6.542;2023-07-31T05:16:59;16.30;99.90
57108;DHT22;42987;52.916;6.542;2023-07-31T05:19:25;16.30;99.90
57108;DHT22;42987;52.916;6.542;2023-07-31T05:21:51;16.30;99.90
57108;DHT22;42987;52.916;6.542;2023-07-31T05:24:17;16.30;99.90
57108;DHT22;42987;52.916;6.542;2023-07-31T05:26:43;16.30;99.90
57108;DHT22;42987;52.916;6.542;2023-07-31T05:29:08;16.40;99.90
57108;DHT22;42987;52.916;6.542;2023-07-31T05:31:34;16.40;99.90
57108;DHT22;42987;52.916;6.542;2023-07-31T05:34:00;16.40;99.90
57108;DHT22;42987;52.916;6.542;2023-07-31T05:36:26;16.40;99.90
57108;DHT22;42987;52.916;6.542;2023-07-31T05:38:51;16.40;99.90
57108;DHT22;42987;52.916;6.542;2023-07-31T05:41:17;16.50;99.90
57108;DHT22;42987;52.916;6.542;2023-07-31T05:43:43;16.50;99.90
57108;DHT22;42987;52.916;6.542;2023-07-31T05:46:09;16.50;99.90
57108;DHT22;42987;52.916;6.542;2023-07-31T05:48:35;16.50;99.90
57108;DHT22;42987;52.916;6.542;2023-07-31T05:51:01;16.50;99.90
57108;DHT22;42987;52.916;6.542;2023-07-31T05:53:27;16.50;99.90
57108;DHT22;42987;52.916;6.542;2023-07-31T05:55:53;16.50;99.90
57108;DHT22;42987;52.916;6.542;2023-07-31T05:58:19;16.60;99.90
57108;DHT22;42987;52.916;6.542;2023-07-31T06:00:45;16.60;99.90
57108;DHT22;42987;52.916;6.542;2023-07-31T06:03:11;16.60;99.90
57108;DHT22;42987;52.916;6.542;2023-07-31T06:05:36;16.60;99.90
57108;DHT22;42987;52.916;6.542;2023-07-31T06:08:02;16.60;99.90
57108;DHT22;42987;52.916;6.542;2023-07-31T06:10:28;16.60;99.90
57108;DHT22;42987;52.916;6.542;2023-07-31T06:12:54;16.60;99.90
57108;DHT22;42987;52.916;6.542;2023-07-31T06:15:23;16.60;99.90
57108;DHT22;42987;52.916;6.542;2023-07-31T06:17:48;16.60;99.90
57108;DHT22;42987;52.916;6.542;2023-07-31T06:20:14;16.60;99.90
57108;DHT22;42987;52.916;6.542;2023-07-31T06:22:40;16.60;99.90
57108;DHT22;42987;52.916;6.542;2023-07-31T06:25:06;16.60;99.90
57108;DHT22;42987;52.916;6.542;2023-07-31T06:27:31;16.60;99.90
57108;DHT22;42987;52.916;6.542;2023-07-31T06:29:57;16.60;99.90
57108;DHT22;42987;52.916;6.542;2023-07-31T06:32:23;16.60;99.90
57108;DHT22;42987;52.916;6.542;2023-07-31T06:34:49;16.60;99.90
57108;DHT22;42987;52.916;6.542;2023-07-31T06:37:14;16.60;99.90
57108;DHT22;42987;52.916;6.542;2023-07-31T06:39:40;16.60;99.90
57108;DHT22;42987;52.916;6.542;2023-07-31T06:42:06;16.60;99.90
57108;DHT22;42987;52.916;6.542;2023-07-31T06:44:32;16.60;99.90
57108;DHT22;42987;52.916;6.542;2023-07-31T06:46:58;16.60;99.90
57108;DHT22;42987;52.916;6.542;2023-07-31T06:49:26;16.60;99.90
57108;DHT22;42987;52.916;6.542;2023-07-31T06:51:55;16.70;99.90
57108;DHT22;42987;52.916;6.542;2023-07-31T06:54:21;16.70;99.90
57108;DHT22;42987;52.916;6.542;2023-07-31T06:56:46;16.70;99.90
57108;DHT22;42987;52.916;6.542;2023-07-31T06:59:12;16.70;99.90
57108;DHT22;42987;52.916;6.542;2023-07-31T07:01:38;16.70;99.90
57108;DHT22;42987;52.916;6.542;2023-07-31T07:04:04;16.70;99.90
57108;DHT22;42987;52.916;6.542;2023-07-31T07:06:30;16.70;99.90
57108;DHT22;42987;52.916;6.542;2023-07-31T07:08:55;16.70;99.90
57108;DHT22;42987;52.916;6.542;2023-07-31T07:11:21;16.70;99.90
57108;DHT22;42987;52.916;6.542;2023-07-31T07:13:47;16.70;99.90
57108;DHT22;42987;52.916;6.542;2023-07-31T07:16:12;16.70;99.90
57108;DHT22;42987;52.916;6.542;2023-07-31T07:18:38;16.70;99.90
57108;DHT22;42987;52.916;6.542;2023-07-31T07:21:04;16.70;99.90
57108;DHT22;42987;52.916;6.542;2023-07-31T07:23:30;16.60;99.90
57108;DHT22;42987;52.916;6.542;2023-07-31T07:25:55;16.70;99.90
57108;DHT22;42987;52.916;6.542;2023-07-31T07:28:21;16.70;99.90
57108;DHT22;42987;52.916;6.542;2023-07-31T07:30:51;16.70;99.90
57108;DHT22;42987;52.916;6.542;2023-07-31T07:33:19;16.70;99.90
57108;DHT22;42987;52.916;6.542;2023-07-31T07:35:45;16.70;99.90
57108;DHT22;42987;52.916;6.542;2023-07-31T07:38:10;16.70;99.90
57108;DHT22;42987;52.916;6.542;2023-07-31T07:40:40;16.70;99.90
57108;DHT22;42987;52.916;6.542;2023-07-31T07:43:06;16.70;99.90
57108;DHT22;42987;52.916;6.542;2023-07-31T07:45:31;16.70;99.90
57108;DHT22;42987;52.916;6.542;2023-07-31T07:47:57;16.70;99.90
57108;DHT22;42987;52.916;6.542;2023-07-31T07:50:24;16.70;99.90
57108;DHT22;42987;52.916;6.542;2023-07-31T07:52:50;16.70;99.90
57108;DHT22;42987;52.916;6.542;2023-07-31T07:55:16;16.70;99.90
57108;DHT22;42987;52.916;6.542;2023-07-31T07:57:41;16.70;99.90
57108;DHT22;42987;52.916;6.542;2023-07-31T08:00:11;16.70;99.90
57108;DHT22;42987;52.916;6.542;2023-07-31T08:02:40;16.70;99.90
57108;DHT22;42987;52.916;6.542;2023-07-31T08:05:06;16.80;99.90
57108;DHT22;42987;52.916;6.542;2023-07-31T08:07:33;16.80;99.90
57108;DHT22;42987;52.916;6.542;2023-07-31T08:09:59;16.80;99.90
57108;DHT22;42987;52.916;6.542;2023-07-31T08:12:24;16.80;99.90
57108;DHT22;42987;52.916;6.542;2023-07-31T08:14:50;16.80;99.90
57108;DHT22;42987;52.916;6.542;2023-07-31T08:17:17;16.80;99.90
57108;DHT22;42987;52.916;6.542;2023-07-31T08:19:42;16.80;99.90
57108;DHT22;42987;52.916;6.542;2023-07-31T08:22:09;16.90;99.90
57108;DHT22;42987;52.916;6.542;2023-07-31T08:24:35;16.90;99.90
57108;DHT22;42987;52.916;6.542;2023-07-31T08:27:01;16.90;99.90
57108;DHT22;42987;52.916;6.542;2023-07-31T08:29:26;17.00;99.90
57108;DHT22;42987;52.916;6.542;2023-07-31T08:31:52;17.00;99.90
57108;DHT22;42987;52.916;6.542;2023-07-31T08:34:18;17.00;99.90
57108;DHT22;42987;52.916;6.542;2023-07-31T08:36:44;17.00;99.90
57108;DHT22;42987;52.916;6.542;2023-07-31T08:39:10;17.00;99.90
57108;DHT22;42987;52.916;6.542;2023-07-31T08:41:39;17.00;99.90
57108;DHT22;42987;52.916;6.542;2023-07-31T08:44:05;17.00;99.90
57108;DHT22;42987;52.916;6.542;2023-07-31T08:46:32;17.10;99.90
57108;DHT22;42987;52.916;6.542;2023-07-31T08:48:59;17.10;99.90
57108;DHT22;42987;52.916;6.542;2023-07-31T08:51:25;17.10;99.90
57108;DHT22;42987;52.916;6.542;2023-07-31T08:53:53;17.20;99.90
57108;DHT22;42987;52.916;6.542;2023-07-31T08:56:19;17.20;99.90
57108;DHT22;42987;52.916;6.542;2023-07-31T08:58:46;17.20;99.90
57108;DHT22;42987;52.916;6.542;2023-07-31T09:01:13;17.20;99.90
57108;DHT22;42987;52.916;6.542;2023-07-31T09:03:40;17.20;99.90
57108;DHT22;42987;52.916;6.542;2023-07-31T09:06:07;17.30;99.90
57108;DHT22;42987;52.916;6.542;2023-07-31T09:08:33;17.30;99.90
57108;DHT22;42987;52.916;6.542;2023-07-31T09:11:02;17.40;99.90
57108;DHT22;42987;52.916;6.542;2023-07-31T09:13:31;17.40;99.90
57108;DHT22;42987;52.916;6.542;2023-07-31T09:15:57;17.40;99.90
57108;DHT22;42987;52.916;6.542;2023-07-31T09:18:23;17.40;99.90
57108;DHT22;42987;52.916;6.542;2023-07-31T09:23:40;17.50;99.90
57108;DHT22;42987;52.916;6.542;2023-07-31T09:26:06;17.50;99.90
57108;DHT22;42987;52.916;6.542;2023-07-31T09:28:32;17.40;99.90
57108;DHT22;42987;52.916;6.542;2023-07-31T09:30:58;17.40;99.90
57108;DHT22;42987;52.916;6.542;2023-07-31T09:33:23;17.40;99.90
57108;DHT22;42987;52.916;6.542;2023-07-31T09:35:49;17.40;99.90
57108;DHT22;42987;52.916;6.542;2023-07-31T09:38:15;17.40;99.90
57108;DHT22;42987;52.916;6.542;2023-07-31T09:40:46;17.40;99.90
57108;DHT22;42987;52.916;6.542;2023-07-31T09:43:17;17.50;99.90
57108;DHT22;42987;52.916;6.542;2023-07-31T09:45:44;17.50;99.90
57108;DHT22;42987;52.916;6.542;2023-07-31T09:48:18;17.50;99.90
57108;DHT22;42987;52.916;6.542;2023-07-31T09:50:48;17.50;99.90
57108;DHT22;42987;52.916;6.542;2023-07-31T09:53:14;17.50;99.90
57108;DHT22;42987;52.916;6.542;2023-07-31T09:55:41;17.60;99.90
57108;DHT22;42987;52.916;6.542;2023-07-31T09:58:10;17.70;99.90
57108;DHT22;42987;52.916;6.542;2023-07-31T10:00:40;17.80;99.90
57108;DHT22;42987;52.916;6.542;2023-07-31T10:03:10;17.90;99.90
57108;DHT22;42987;52.916;6.542;2023-07-31T10:05:46;17.90;99.90
57108;DHT22;42987;52.916;6.542;2023-07-31T10:08:15;18.00;99.90
57108;DHT22;42987;52.916;6.542;2023-07-31T10:10:43;18.00;99.90
57108;DHT22;42987;52.916;6.542;2023-07-31T10:13:09;18.10;99.90
57108;DHT22;42987;52.916;6.542;2023-07-31T10:15:36;18.10;99.90
57108;DHT22;42987;52.916;6.542;2023-07-31T10:18:02;18.20;99.90
57108;DHT22;42987;52.916;6.542;2023-07-31T10:20:29;18.20;99.90
57108;DHT22;42987;52.916;6.542;2023-07-31T10:22:56;18.20;99.90
57108;DHT22;42987;52.916;6.542;2023-07-31T10:25:22;18.20;99.90
57108;DHT22;42987;52.916;6.542;2023-07-31T10:27:49;18.20;99.90
57108;DHT22;42987;52.916;6.542;2023-07-31T10:30:18;18.20;99.90
57108;DHT22;42987;52.916;6.542;2023-07-31T10:32:49;18.20;99.90
57108;DHT22;42987;52.916;6.542;2023-07-31T10:35:18;18.20;99.90
57108;DHT22;42987;52.916;6.542;2023-07-31T10:37:44;18.20;99.90
57108;DHT22;42987;52.916;6.542;2023-07-31T10:40:17;18.30;99.90
57108;DHT22;42987;52.916;6.542;2023-07-31T10:42:54;18.30;99.90
57108;DHT22;42987;52.916;6.542;2023-07-31T10:45:47;18.40;99.90
57108;DHT22;42987;52.916;6.542;2023-07-31T10:48:15;18.50;99.90
57108;DHT22;42987;52.916;6.542;2023-07-31T10:51:11;18.50;99.90
57108;DHT22;42987;52.916;6.542;2023-07-31T10:53:41;18.50;99.90
57108;DHT22;42987;52.916;6.542;2023-07-31T10:56:09;18.50;99.90
57108;DHT22;42987;52.916;6.542;2023-07-31T10:58:36;18.50;99.90
57108;DHT22;42987;52.916;6.542;2023-07-31T11:01:04;18.50;99.90
57108;DHT22;42987;52.916;6.542;2023-07-31T11:06:12;18.60;99.90
57108;DHT22;42987;52.916;6.542;2023-07-31T11:08:49;18.60;99.90
57108;DHT22;42987;52.916;6.542;2023-07-31T11:11:17;18.70;99.90
57108;DHT22;42987;52.916;6.542;2023-07-31T11:13:48;18.80;99.90
57108;DHT22;42987;52.916;6.542;2023-07-31T11:16:24;18.80;99.90
57108;DHT22;42987;52.916;6.542;2023-07-31T11:18:51;18.90;99.90
57108;DHT22;42987;52.916;6.542;2023-07-31T11:21:22;18.90;99.90
57108;DHT22;42987;52.916;6.542;2023-07-31T11:23:50;19.00;99.90
57108;DHT22;42987;52.916;6.542;2023-07-31T11:26:17;19.10;99.90
57108;DHT22;42987;52.916;6.542;2023-07-31T11:28:46;19.20;99.90
57108;DHT22;42987;52.916;6.542;2023-07-31T11:31:11;19.30;99.90
57108;DHT22;42987;52.916;6.542;2023-07-31T11:33:40;19.40;99.90
57108;DHT22;42987;52.916;6.542;2023-07-31T11:36:10;19.40;99.90
57108;DHT22;42987;52.916;6.542;2023-07-31T11:38:39;19.30;99.90
57108;DHT22;42987;52.916;6.542;2023-07-31T11:41:05;19.40;99.90
57108;DHT22;42987;52.916;6.542;2023-07-31T11:43:31;19.30;99.90
57108;DHT22;42987;52.916;6.542;2023-07-31T11:46:01;19.30;99.90
57108;DHT22;42987;52.916;6.542;2023-07-31T11:48:34;19.20;99.90
57108;DHT22;42987;52.916;6.542;2023-07-31T11:51:07;19.20;99.90
57108;DHT22;42987;52.916;6.542;2023-07-31T11:53:52;19.30;99.90
57108;DHT22;42987;52.916;6.542;2023-07-31T11:56:20;19.40;99.90
57108;DHT22;42987;52.916;6.542;2023-07-31T11:58:50;19.50;99.90
57108;DHT22;42987;52.916;6.542;2023-07-31T12:01:19;19.60;99.90
57108;DHT22;42987;52.916;6.542;2023-07-31T12:03:46;19.50;99.90
57108;DHT22;42987;52.916;6.542;2023-07-31T12:06:12;19.50;99.90
57108;DHT22;42987;52.916;6.542;2023-07-31T12:08:38;19.40;99.90
57108;DHT22;42987;52.916;6.542;2023-07-31T12:11:05;19.30;99.90
57108;DHT22;42987;52.916;6.542;2023-07-31T12:13:32;19.30;99.90
57108;DHT22;42987;52.916;6.542;2023-07-31T12:16:01;19.30;99.90
57108;DHT22;42987;52.916;6.542;2023-07-31T12:18:36;19.10;99.90
57108;DHT22;42987;52.916;6.542;2023-07-31T12:21:07;19.00;99.90
57108;DHT22;42987;52.916;6.542;2023-07-31T12:23:35;19.00;99.90
57108;DHT22;42987;52.916;6.542;2023-07-31T12:26:13;18.90;99.90
57108;DHT22;42987;52.916;6.542;2023-07-31T12:28:45;18.90;99.90
57108;DHT22;42987;52.916;6.542;2023-07-31T12:31:22;18.90;99.90
57108;DHT22;42987;52.916;6.542;2023-07-31T12:33:49;19.00;99.90
57108;DHT22;42987;52.916;6.542;2023-07-31T12:36:17;19.10;99.90
57108;DHT22;42987;52.916;6.542;2023-07-31T12:38:43;19.20;99.90
57108;DHT22;42987;52.916;6.542;2023-07-31T12:41:09;19.30;99.90
57108;DHT22;42987;52.916;6.542;2023-07-31T12:43:36;19.40;99.90
57108;DHT22;42987;52.916;6.542;2023-07-31T12:46:06;19.40;99.90
57108;DHT22;42987;52.916;6.542;2023-07-31T12:48:34;19.50;99.90
57108;DHT22;42987;52.916;6.542;2023-07-31T12:51:00;19.50;99.90
57108;DHT22;42987;52.916;6.542;2023-07-31T12:53:25;19.40;99.90
57108;DHT22;42987;52.916;6.542;2023-07-31T12:55:51;19.40;99.90
57108;DHT22;42987;52.916;6.542;2023-07-31T12:58:17;19.40;99.90
57108;DHT22;42987;52.916;6.542;2023-07-31T13:00:42;19.30;99.90
57108;DHT22;42987;52.916;6.542;2023-07-31T13:03:08;19.40;99.90
57108;DHT22;42987;52.916;6.542;2023-07-31T13:05:34;19.40;99.90
57108;DHT22;42987;52.916;6.542;2023-07-31T13:08:00;19.40;99.90
57108;DHT22;42987;52.916;6.542;2023-07-31T13:10:27;19.50;99.90
57108;DHT22;42987;52.916;6.542;2023-07-31T13:12:54;19.60;99.90
57108;DHT22;42987;52.916;6.542;2023-07-31T13:15:20;19.60;99.90
57108;DHT22;42987;52.916;6.542;2023-07-31T13:17:46;19.70;99.90
57108;DHT22;42987;52.916;6.542;2023-07-31T13:20:13;19.60;99.90
57108;DHT22;42987;52.916;6.542;2023-07-31T13:22:38;19.70;99.90
57108;DHT22;42987;52.916;6.542;2023-07-31T13:25:05;19.70;99.90
57108;DHT22;42987;52.916;6.542;2023-07-31T13:27:31;19.70;99.90
57108;DHT22;42987;52.916;6.542;2023-07-31T13:29:57;19.70;99.90
57108;DHT22;42987;52.916;6.542;2023-07-31T13:32:23;19.70;99.90
57108;DHT22;42987;52.916;6.542;2023-07-31T13:34:49;19.70;99.90
57108;DHT22;42987;52.916;6.542;2023-07-31T13:37:15;19.70;99.90
57108;DHT22;42987;52.916;6.542;2023-07-31T13:39:41;19.70;99.90
57108;DHT22;42987;52.916;6.542;2023-07-31T13:42:08;19.70;99.90
57108;DHT22;42987;52.916;6.542;2023-07-31T13:44:40;19.60;99.90
57108;DHT22;42987;52.916;6.542;2023-07-31T13:47:07;19.60;99.90
57108;DHT22;42987;52.916;6.542;2023-07-31T13:49:36;19.60;99.90
57108;DHT22;42987;52.916;6.542;2023-07-31T13:52:04;19.60;99.90
57108;DHT22;42987;52.916;6.542;2023-07-31T13:54:30;19.60;99.90
57108;DHT22;42987;52.916;6.542;2023-07-31T13:56:56;19.60;99.90
57108;DHT22;42987;52.916;6.542;2023-07-31T13:59:21;19.60;99.90
57108;DHT22;42987;52.916;6.542;2023-07-31T14:01:48;19.70;99.90
57108;DHT22;42987;52.916;6.542;2023-07-31T14:04:14;19.70;99.90
57108;DHT22;42987;52.916;6.542;2023-07-31T14:06:40;19.70;99.90
57108;DHT22;42987;52.916;6.542;2023-07-31T14:09:05;19.70;99.90
57108;DHT22;42987;52.916;6.542;2023-07-31T14:11:32;19.70;99.90
57108;DHT22;42987;52.916;6.542;2023-07-31T14:13:58;19.70;99.90
57108;DHT22;42987;52.916;6.542;2023-07-31T14:16:24;19.70;99.90
57108;DHT22;42987;52.916;6.542;2023-07-31T14:18:50;19.60;99.90
57108;DHT22;42987;52.916;6.542;2023-07-31T14:21:16;19.60;99.90
57108;DHT22;42987;52.916;6.542;2023-07-31T14:23:42;19.70;99.90
57108;DHT22;42987;52.916;6.542;2023-07-31T14:26:08;19.70;99.90
57108;DHT22;42987;52.916;6.542;2023-07-31T14:28:33;19.60;99.90
57108;DHT22;42987;52.916;6.542;2023-07-31T14:30:59;19.70;99.90
57108;DHT22;42987;52.916;6.542;2023-07-31T14:33:25;19.70;99.90
57108;DHT22;42987;52.916;6.542;2023-07-31T14:35:51;19.70;99.90
57108;DHT22;42987;52.916;6.542;2023-07-31T14:38:17;19.70;99.90
57108;DHT22;42987;52.916;6.542;2023-07-31T14:40:43;19.80;99.90
57108;DHT22;42987;52.916;6.542;2023-07-31T14:43:09;19.80;99.90
57108;DHT22;42987;52.916;6.542;2023-07-31T14:45:35;19.70;99.90
57108;DHT22;42987;52.916;6.542;2023-07-31T14:48:00;19.80;99.90
57108;DHT22;42987;52.916;6.542;2023-07-31T14:50:26;19.80;99.90
57108;DHT22;42987;52.916;6.542;2023-07-31T14:52:52;19.70;99.90
57108;DHT22;42987;52.916;6.542;2023-07-31T14:55:19;19.70;99.90
57108;DHT22;42987;52.916;6.542;2023-07-31T14:57:45;19.70;99.90
57108;DHT22;42987;52.916;6.542;2023-07-31T15:00:11;19.70;99.90
57108;DHT22;42987;52.916;6.542;2023-07-31T15:02:40;19.70;99.90
57108;DHT22;42987;52.916;6.542;2023-07-31T15:05:10;19.60;99.90
57108;DHT22;42987;52.916;6.542;2023-07-31T15:07:36;19.60;99.90
57108;DHT22;42987;52.916;6.542;2023-07-31T15:10:02;19.60;99.90
57108;DHT22;42987;52.916;6.542;2023-07-31T15:12:28;19.60;99.90
57108;DHT22;42987;52.916;6.542;2023-07-31T15:14:54;19.50;99.90
57108;DHT22;42987;52.916;6.542;2023-07-31T15:17:20;19.50;99.90
57108;DHT22;42987;52.916;6.542;2023-07-31T15:19:46;19.50;99.90
57108;DHT22;42987;52.916;6.542;2023-07-31T15:22:12;19.50;99.90
57108;DHT22;42987;52.916;6.542;2023-07-31T15:24:37;19.50;99.90
57108;DHT22;42987;52.916;6.542;2023-07-31T15:27:03;19.50;99.90
57108;DHT22;42987;52.916;6.542;2023-07-31T15:29:30;19.50;99.90
57108;DHT22;42987;52.916;6.542;2023-07-31T15:31:56;19.40;99.90
57108;DHT22;42987;52.916;6.542;2023-07-31T15:34:22;19.40;99.90
57108;DHT22;42987;52.916;6.542;2023-07-31T15:36:51;19.40;99.90
57108;DHT22;42987;52.916;6.542;2023-07-31T15:39:17;19.40;99.90
57108;DHT22;42987;52.916;6.542;2023-07-31T15:41:43;19.40;99.90